Time;durP1;ratioP1;P1;durP2;ratioP2;P2;SDS_P1;SDS_P2;PMS_P1;PMS_P2;Temp;Humidity;BMP_temperature;BMP_pressure;BME280_temperature;BME280_humidity;BME280_pressure;Samples;Min_cycle;Max_cycle;Signal;HPM_P1;HPM_P2
2022/02/16 00:01:57;;;;;;;;;;;;;;;;;;4962629;28;19945;-66
2022/02/16 00:04:23;;;;;;;;;;;;;;;;;;4964038;28;19981;-65
2022/02/16 00:06:49;;;;;;;;;;;;;;;;;;4960245;28;19997;-66
2022/02/16 00:09:15;;;;;;;;;;;;;;;;;;4966852;28;19918;-66
2022/02/16 00:11:41;;;;;;;;;;;;;;;;;;4963753;28;19914;-65
2022/02/16 00:14:08;;;;;;;;;;;;;;;;;;4968052;28;19933;-65
2022/02/16 00:16:34;;;;;;;;;;;;;;;;;;4965355;28;19926;-66
2022/02/16 00:19:00;;;;;;;;;;;;;;;;;;4962003;28;19968;-66
2022/02/16 00:21:26;;;;;;;;;;;;;;;;;;4968420;28;19924;-66
2022/02/16 00:23:52;;;;;;;;;;;;;;;;;;4948341;28;19918;-66
2022/02/16 00:26:18;;;;;;;;;;;;;;;;;;4952350;28;19922;-65
2022/02/16 00:28:45;;;;;;;;;;;;;;;;;;4950276;28;19922;-65
2022/02/16 00:31:11;;;;;;;;;;;;;;;;;;4951269;28;20403;-66
2022/02/16 00:33:37;;;;;;;;;;;;;;;;;;4966493;28;19984;-66
2022/02/16 00:36:03;;;;;;;;;;;;;;;;;;4966759;28;19922;-66
2022/02/16 00:38:29;;;;;;;;;;;;;;;;;;4963248;28;20519;-65
2022/02/16 00:40:56;;;;;;;;;;;;;;;;;;4963564;28;19925;-65
2022/02/16 00:43:23;;;;;;;;;;;;;;;;;;4958106;28;19980;-65
2022/02/16 00:45:49;;;;;;;;;;;;;;;;;;4967445;28;19918;-66
2022/02/16 00:48:15;;;;;;;;;;;;;;;;;;4962093;28;19926;-66
2022/02/16 00:50:41;;;;;;;;;;;;;;;;;;4946276;28;19968;-66
2022/02/16 00:53:07;;;;;;;;;;;;;;;;;;4965656;28;19925;-66
2022/02/16 00:55:33;;;;;;;;;;;;;;;;;;4964594;28;20021;-65
2022/02/16 00:57:59;;;;;;;;;;;;;;;;;;4968141;28;19922;-65
2022/02/16 01:00:25;;;;;;;;;;;;;;;;;;4966937;28;19997;-65
2022/02/16 01:02:52;;;;;;;;;;;;;;;;;;4947593;28;19957;-65
2022/02/16 01:05:18;;;;;;;;;;;;;;;;;;4965421;28;20309;-65
2022/02/16 01:07:44;;;;;;;;;;;;;;;;;;4944536;28;20854;-66
2022/02/16 01:10:10;;;;;;;;;;;;;;;;;;4966804;28;19933;-66
2022/02/16 01:12:36;;;;;;;;;;;;;;;;;;4967351;28;19964;-66
2022/02/16 01:15:04;;;;;;;;;;;;;;;;;;4965400;28;19958;-65
2022/02/16 01:17:31;;;;;;;;;;;;;;;;;;4968171;28;20316;-66
2022/02/16 01:19:58;;;;;;;;;;;;;;;;;;4958894;28;20029;-66
2022/02/16 01:22:24;;;;;;;;;;;;;;;;;;4968198;28;19983;-66
2022/02/16 01:24:50;;;;;;;;;;;;;;;;;;4961768;28;19918;-66
2022/02/16 01:27:16;;;;;;;;;;;;;;;;;;4964365;28;19917;-65
2022/02/16 01:29:42;;;;;;;;;;;;;;;;;;4958804;28;20476;-65
2022/02/16 01:32:08;;;;;;;;;;;;;;;;;;4963954;28;19928;-65
2022/02/16 01:34:34;;;;;;;;;;;;;;;;;;4953850;28;19921;-66
2022/02/16 01:37:00;;;;;;;;;;;;;;;;;;4957760;28;22681;-65
2022/02/16 01:39:26;;;;;;;;;;;;;;;;;;4960682;28;19918;-65
2022/02/16 01:41:53;;;;;;;;;;;;;;;;;;4959561;28;19964;-65
2022/02/16 01:44:21;;;;;;;;;;;;;;;;;;4963864;28;19939;-65
2022/02/16 01:46:47;;;;;;;;;;;;;;;;;;4963756;28;19925;-65
2022/02/16 01:49:13;;;;;;;;;;;;;;;;;;4965256;28;19924;-65
2022/02/16 01:51:39;;;;;;;;;;;;;;;;;;4964512;28;20613;-65
2022/02/16 01:54:06;;;;;;;;;;;;;;;;;;4966677;28;20041;-65
2022/02/16 01:56:34;;;;;;;;;;;;;;;;;;4962332;28;20380;-65
2022/02/16 01:59:00;;;;;;;;;;;;;;;;;;4963335;28;19976;-65
2022/02/16 02:01:26;;;;;;;;;;;;;;;;;;4965680;28;19918;-66
2022/02/16 02:03:52;;;;;;;;;;;;;;;;;;4944489;28;19918;-66
2022/02/16 02:06:18;;;;;;;;;;;;;;;;;;4967800;28;19921;-66
2022/02/16 02:08:45;;;;;;;;;;;;;;;;;;4944461;28;20032;-66
2022/02/16 02:11:11;;;;;;;;;;;;;;;;;;4969478;28;19917;-66
2022/02/16 02:13:37;;;;;;;;;;;;;;;;;;4966063;28;19959;-66
2022/02/16 02:16:03;;;;;;;;;;;;;;;;;;4960267;28;19928;-66
2022/02/16 02:18:29;;;;;;;;;;;;;;;;;;4965217;28;19953;-66
2022/02/16 02:20:55;;;;;;;;;;;;;;;;;;4964417;28;20345;-67
2022/02/16 02:23:21;;;;;;;;;;;;;;;;;;4968290;28;20339;-66
2022/02/16 02:25:48;;;;;;;;;;;;;;;;;;4959174;28;19918;-66
2022/02/16 02:28:14;;;;;;;;;;;;;;;;;;4964208;28;20251;-66
2022/02/16 02:30:40;;;;;;;;;;;;;;;;;;4965226;28;20758;-66
2022/02/16 02:33:07;;;;;;;;;;;;;;;;;;4962264;28;19933;-66
2022/02/16 02:35:33;;;;;;;;;;;;;;;;;;4967789;28;20369;-66
2022/02/16 02:37:59;;;;;;;;;;;;;;;;;;4960483;28;19925;-66
2022/02/16 02:40:26;;;;;;;;;;;;;;;;;;4961595;28;19928;-66
2022/02/16 02:42:52;;;;;;;;;;;;;;;;;;4957949;28;19917;-67
2022/02/16 02:45:19;;;;;;;;;;;;;;;;;;4947964;28;19929;-66
2022/02/16 02:47:45;;;;;;;;;;;;;;;;;;4959477;28;19924;-66
2022/02/16 02:50:11;;;;;;;;;;;;;;;;;;4963300;28;19964;-67
2022/02/16 02:52:38;;;;;;;;;;;;;;;;;;4946942;28;20353;-64
2022/02/16 02:55:05;;;;;;;;;;;;;;;;;;4965806;28;19922;-65
2022/02/16 02:57:31;;;;;;;;;;;;;;;;;;4964845;28;19917;-64
2022/02/16 02:59:57;;;;;;;;;;;;;;;;;;4959873;28;19954;-65
2022/02/16 03:02:23;;;;;;;;;;;;;;;;;;4952558;28;20140;-65
2022/02/16 03:04:49;;;;;;;;;;;;;;;;;;4956735;28;19924;-65
2022/02/16 03:07:15;;;;;;;;;;;;;;;;;;4965922;28;19928;-66
2022/02/16 03:09:41;;;;;;;;;;;;;;;;;;4960323;28;19957;-65
2022/02/16 03:12:07;;;;;;;;;;;;;;;;;;4965521;28;20569;-65
2022/02/16 03:14:33;;;;;;;;;;;;;;;;;;4967367;28;20377;-65
2022/02/16 03:16:59;;;;;;;;;;;;;;;;;;4959734;28;21124;-66
2022/02/16 03:19:26;;;;;;;;;;;;;;;;;;4968133;28;20392;-65
2022/02/16 03:21:52;;;;;;;;;;;;;;;;;;4958602;28;20770;-65
2022/02/16 03:24:18;;;;;;;;;;;;;;;;;;4965021;28;19918;-65
2022/02/16 03:26:44;;;;;;;;;;;;;;;;;;4958741;28;20435;-65
2022/02/16 03:29:10;;;;;;;;;;;;;;;;;;4960897;28;19922;-65
2022/02/16 03:31:37;;;;;;;;;;;;;;;;;;4964838;28;20416;-65
2022/02/16 03:34:03;;;;;;;;;;;;;;;;;;4961829;28;19929;-65
2022/02/16 03:36:29;;;;;;;;;;;;;;;;;;4965534;28;20052;-65
2022/02/16 03:38:57;;;;;;;;;;;;;;;;;;4957303;28;20058;-67
2022/02/16 03:41:24;;;;;;;;;;;;;;;;;;4963168;28;19925;-65
2022/02/16 03:43:52;;;;;;;;;;;;;;;;;;4926176;28;19937;-66
2022/02/16 03:46:18;;;;;;;;;;;;;;;;;;4927032;28;19926;-65
2022/02/16 03:48:44;;;;;;;;;;;;;;;;;;4934258;28;19950;-66
2022/02/16 03:51:10;;;;;;;;;;;;;;;;;;4928636;28;20594;-65
2022/02/16 03:53:36;;;;;;;;;;;;;;;;;;4927174;28;19929;-65
2022/02/16 03:56:02;;;;;;;;;;;;;;;;;;4919624;28;20606;-65
2022/02/16 03:58:28;;;;;;;;;;;;;;;;;;4927527;28;19941;-65
2022/02/16 04:00:55;;;;;;;;;;;;;;;;;;4925721;28;19918;-66
2022/02/16 04:03:21;;;;;;;;;;;;;;;;;;4924180;28;19929;-64
2022/02/16 04:05:47;;;;;;;;;;;;;;;;;;4925822;28;19918;-65
2022/02/16 04:08:13;;;;;;;;;;;;;;;;;;4927076;28;19992;-65
2022/02/16 04:10:40;;;;;;;;;;;;;;;;;;4925086;28;19922;-65
2022/02/16 04:13:06;;;;;;;;;;;;;;;;;;4926592;28;20014;-65
2022/02/16 04:15:33;;;;;;;;;;;;;;;;;;4938839;28;20728;-70
2022/02/16 04:18:00;;;;;;;;;;;;;;;;;;4921612;28;19954;-65
2022/02/16 04:20:27;;;;;;;;;;;;;;;;;;4928567;28;19945;-65
2022/02/16 04:22:54;;;;;;;;;;;;;;;;;;4921264;28;19927;-65
2022/02/16 04:25:21;;;;;;;;;;;;;;;;;;4921543;28;19918;-65
2022/02/16 04:27:48;;;;;;;;;;;;;;;;;;4925103;28;19942;-65
2022/02/16 04:30:14;;;;;;;;;;;;;;;;;;4922776;28;20464;-65
2022/02/16 04:32:42;;;;;;;;;;;;;;;;;;4919897;28;20001;-65
2022/02/16 04:35:08;;;;;;;;;;;;;;;;;;4925344;28;19993;-65
2022/02/16 04:37:34;;;;;;;;;;;;;;;;;;4924480;28;20734;-65
2022/02/16 04:40:01;;;;;;;;;;;;;;;;;;4920093;28;21737;-67
2022/02/16 04:42:27;;;;;;;;;;;;;;;;;;4933163;28;20407;-65
2022/02/16 04:44:53;;;;;;;;;;;;;;;;;;4964509;28;19940;-64
2022/02/16 04:47:19;;;;;;;;;;;;;;;;;;4963481;28;19972;-65
2022/02/16 04:49:46;;;;;;;;;;;;;;;;;;4945194;28;20465;-65
2022/02/16 04:52:13;;;;;;;;;;;;;;;;;;4966574;28;20412;-64
2022/02/16 04:54:40;;;;;;;;;;;;;;;;;;4965772;28;20698;-65
2022/02/16 04:57:06;;;;;;;;;;;;;;;;;;4963947;28;19918;-65
2022/02/16 04:59:32;;;;;;;;;;;;;;;;;;4964580;28;20553;-65
2022/02/16 05:01:58;;;;;;;;;;;;;;;;;;4962236;28;19918;-65
2022/02/16 05:04:24;;;;;;;;;;;;;;;;;;4948429;28;19926;-65
2022/02/16 05:06:50;;;;;;;;;;;;;;;;;;4957525;28;19974;-65
2022/02/16 05:09:16;;;;;;;;;;;;;;;;;;4965037;28;19918;-65
2022/02/16 05:11:42;;;;;;;;;;;;;;;;;;4953978;28;19925;-65
2022/02/16 05:14:08;;;;;;;;;;;;;;;;;;4964553;28;19947;-65
2022/02/16 05:16:34;;;;;;;;;;;;;;;;;;4951947;28;19933;-65
2022/02/16 05:19:00;;;;;;;;;;;;;;;;;;4955531;28;20012;-65
2022/02/16 05:21:26;;;;;;;;;;;;;;;;;;4946948;28;19934;-65
2022/02/16 05:23:53;;;;;;;;;;;;;;;;;;4956268;28;19977;-65
2022/02/16 05:26:19;;;;;;;;;;;;;;;;;;4949705;28;19921;-65
2022/02/16 05:28:46;;;;;;;;;;;;;;;;;;4953578;28;19925;-66
2022/02/16 05:31:12;;;;;;;;;;;;;;;;;;4957350;28;20817;-66
2022/02/16 05:33:38;;;;;;;;;;;;;;;;;;4951082;28;20992;-66
2022/02/16 05:36:05;;;;;;;;;;;;;;;;;;4963267;28;19949;-65
2022/02/16 05:38:31;;;;;;;;;;;;;;;;;;4962909;28;20437;-66
2022/02/16 05:40:57;;;;;;;;;;;;;;;;;;4961155;28;19917;-66
2022/02/16 05:43:23;;;;;;;;;;;;;;;;;;4968493;28;19932;-66
2022/02/16 05:45:51;;;;;;;;;;;;;;;;;;4944276;28;19921;-66
2022/02/16 05:48:20;;;;;;;;;;;;;;;;;;4944214;28;19945;-66
2022/02/16 05:50:47;;;;;;;;;;;;;;;;;;4958245;28;19926;-66
2022/02/16 05:53:14;;;;;;;;;;;;;;;;;;4951541;28;19942;-66
2022/02/16 05:55:40;;;;;;;;;;;;;;;;;;4958783;28;20051;-66
2022/02/16 05:58:07;;;;;;;;;;;;;;;;;;4961810;28;19917;-66
2022/02/16 06:00:33;;;;;;;;;;;;;;;;;;4964816;28;19925;-66
2022/02/16 06:02:59;;;;;;;;;;;;;;;;;;4956674;28;19922;-65
2022/02/16 06:05:25;;;;;;;;;;;;;;;;;;4968317;28;20487;-66
2022/02/16 06:07:51;;;;;;;;;;;;;;;;;;4952416;28;19918;-66
2022/02/16 06:10:17;;;;;;;;;;;;;;;;;;4959874;28;19972;-65
2022/02/16 06:12:43;;;;;;;;;;;;;;;;;;4955685;28;19949;-65
2022/02/16 06:15:11;;;;;;;;;;;;;;;;;;4923223;28;19926;-65
2022/02/16 06:17:38;;;;;;;;;;;;;;;;;;4935657;28;20321;-66
2022/02/16 06:20:04;;;;;;;;;;;;;;;;;;4950782;28;20364;-66
2022/02/16 06:22:30;;;;;;;;;;;;;;;;;;4947624;28;20410;-65
2022/02/16 06:24:57;;;;;;;;;;;;;;;;;;4963227;28;19949;-65
2022/02/16 06:27:24;;;;;;;;;;;;;;;;;;4961232;28;20028;-66
2022/02/16 06:29:51;;;;;;;;;;;;;;;;;;4958713;28;19949;-69
2022/02/16 06:32:17;;;;;;;;;;;;;;;;;;4963408;28;19922;-66
2022/02/16 06:34:43;;;;;;;;;;;;;;;;;;4962889;28;19918;-66
2022/02/16 06:37:09;;;;;;;;;;;;;;;;;;4962883;28;19926;-66
2022/02/16 06:39:35;;;;;;;;;;;;;;;;;;4960295;28;20345;-65
2022/02/16 06:42:02;;;;;;;;;;;;;;;;;;4958841;28;20397;-66
2022/02/16 06:44:30;;;;;;;;;;;;;;;;;;4967883;28;20722;-65
2022/02/16 06:46:56;;;;;;;;;;;;;;;;;;4958764;28;19941;-65
2022/02/16 06:49:22;;;;;;;;;;;;;;;;;;4962001;28;19935;-66
2022/02/16 06:51:50;;;;;;;;;;;;;;;;;;4964706;28;19917;-66
2022/02/16 06:54:16;;;;;;;;;;;;;;;;;;4960018;28;19929;-66
2022/02/16 06:56:42;;;;;;;;;;;;;;;;;;4959523;28;20650;-67
2022/02/16 06:59:09;;;;;;;;;;;;;;;;;;4957110;28;19922;-66
2022/02/16 07:01:37;;;;;;;;;;;;;;;;;;4962949;28;19921;-66
2022/02/16 07:04:06;;;;;;;;;;;;;;;;;;4971709;28;19972;-66
2022/02/16 07:06:33;;;;;;;;;;;;;;;;;;4961724;28;19968;-66
2022/02/16 07:08:59;;;;;;;;;;;;;;;;;;4963476;28;19925;-66
2022/02/16 07:11:25;;;;;;;;;;;;;;;;;;4971596;28;19980;-66
2022/02/16 07:13:51;;;;;;;;;;;;;;;;;;4961535;28;19921;-66
2022/02/16 07:16:17;;;;;;;;;;;;;;;;;;4972138;28;19929;-67
2022/02/16 07:18:43;;;;;;;;;;;;;;;;;;4949196;28;19925;-67
2022/02/16 07:21:09;;;;;;;;;;;;;;;;;;4967305;28;20000;-66
2022/02/16 07:23:36;;;;;;;;;;;;;;;;;;4959291;28;19924;-66
2022/02/16 07:26:02;;;;;;;;;;;;;;;;;;4963828;28;20782;-67
2022/02/16 07:28:28;;;;;;;;;;;;;;;;;;4970990;28;19976;-66
2022/02/16 07:30:56;;;;;;;;;;;;;;;;;;4969511;28;19964;-66
2022/02/16 07:33:22;;;;;;;;;;;;;;;;;;4966668;28;19921;-66
2022/02/16 07:35:48;;;;;;;;;;;;;;;;;;4967830;28;19921;-67
2022/02/16 07:38:15;;;;;;;;;;;;;;;;;;4968383;28;19925;-66
2022/02/16 07:40:41;;;;;;;;;;;;;;;;;;4962932;28;19918;-67
2022/02/16 07:43:08;;;;;;;;;;;;;;;;;;4967671;28;19996;-67
2022/02/16 07:45:35;;;;;;;;;;;;;;;;;;4952783;28;19918;-66
2022/02/16 07:48:02;;;;;;;;;;;;;;;;;;4962537;28;19983;-65
2022/02/16 07:50:29;;;;;;;;;;;;;;;;;;4972260;28;19948;-67
2022/02/16 07:52:58;;;;;;;;;;;;;;;;;;4945816;28;20514;-66
2022/02/16 07:55:26;;;;;;;;;;;;;;;;;;4966400;28;20694;-66
2022/02/16 07:57:54;;;;;;;;;;;;;;;;;;4969091;28;20192;-66
2022/02/16 08:00:20;;;;;;;;;;;;;;;;;;4963025;28;21267;-66
2022/02/16 08:02:46;;;;;;;;;;;;;;;;;;4970500;28;19973;-66
2022/02/16 08:05:13;;;;;;;;;;;;;;;;;;4950322;28;19925;-66
2022/02/16 08:07:39;;;;;;;;;;;;;;;;;;4961955;28;19917;-66
2022/02/16 08:10:06;;;;;;;;;;;;;;;;;;4968051;28;20802;-66
2022/02/16 08:12:32;;;;;;;;;;;;;;;;;;4965878;28;20313;-66
2022/02/16 08:14:58;;;;;;;;;;;;;;;;;;4952533;28;20012;-66
2022/02/16 08:17:26;;;;;;;;;;;;;;;;;;4970277;28;20507;-66
2022/02/16 08:19:52;;;;;;;;;;;;;;;;;;4963129;28;20022;-66
2022/02/16 08:22:20;;;;;;;;;;;;;;;;;;4973181;28;19921;-66
2022/02/16 08:24:46;;;;;;;;;;;;;;;;;;4967248;28;19940;-66
2022/02/16 08:27:12;;;;;;;;;;;;;;;;;;4973061;28;20609;-66
2022/02/16 08:29:39;;;;;;;;;;;;;;;;;;4955879;28;19933;-66
2022/02/16 08:32:06;;;;;;;;;;;;;;;;;;4967078;28;19993;-65
2022/02/16 08:34:32;;;;;;;;;;;;;;;;;;4962118;28;20024;-66
2022/02/16 08:36:58;;;;;;;;;;;;;;;;;;4967066;28;20014;-66
2022/02/16 08:39:24;;;;;;;;;;;;;;;;;;4953511;28;20015;-66
2022/02/16 08:41:50;;;;;;;;;;;;;;;;;;4976929;28;19959;-67
2022/02/16 08:44:15;;;;;;;;;;;;;;;;;;4974297;28;19926;-66
2022/02/16 08:46:41;;;;;;;;;;;;;;;;;;4967285;28;19925;-66
2022/02/16 08:49:07;;;;;;;;;;;;;;;;;;4968991;28;19928;-66
2022/02/16 08:51:33;;;;;;;;;;;;;;;;;;4966073;28;19949;-67
2022/02/16 08:53:59;;;;;;;;;;;;;;;;;;4955088;28;20107;-66
2022/02/16 08:56:29;;;;;;;;;;;;;;;;;;4972861;28;20302;-66
2022/02/16 08:58:55;;;;;;;;;;;;;;;;;;4967478;28;20012;-67
2022/02/16 09:01:21;;;;;;;;;;;;;;;;;;4974926;28;20008;-67
2022/02/16 09:03:47;;;;;;;;;;;;;;;;;;4952204;28;19917;-66
2022/02/16 09:06:13;;;;;;;;;;;;;;;;;;4957721;28;19988;-67
2022/02/16 09:08:39;;;;;;;;;;;;;;;;;;4965627;28;20571;-67
2022/02/16 09:11:05;;;;;;;;;;;;;;;;;;4953019;28;19922;-66
2022/02/16 09:13:31;;;;;;;;;;;;;;;;;;4977583;28;19933;-67
2022/02/16 09:15:57;;;;;;;;;;;;;;;;;;4973166;28;19918;-67
2022/02/16 09:18:24;;;;;;;;;;;;;;;;;;4967273;28;20021;-67
2022/02/16 09:20:50;;;;;;;;;;;;;;;;;;4962594;28;20735;-69
2022/02/16 09:23:16;;;;;;;;;;;;;;;;;;4953218;28;19914;-67
2022/02/16 09:25:42;;;;;;;;;;;;;;;;;;4939288;28;19929;-67
2022/02/16 09:28:08;;;;;;;;;;;;;;;;;;4968125;28;20616;-67
2022/02/16 09:30:35;;;;;;;;;;;;;;;;;;4962671;28;20925;-67
2022/02/16 09:33:01;;;;;;;;;;;;;;;;;;4946112;28;19944;-67
2022/02/16 09:35:27;;;;;;;;;;;;;;;;;;4972091;28;19924;-67
2022/02/16 09:37:53;;;;;;;;;;;;;;;;;;4944316;28;19918;-67
2022/02/16 09:40:18;;;;;;;;;;;;;;;;;;4969250;28;19930;-67
2022/02/16 09:42:44;;;;;;;;;;;;;;;;;;4940835;28;19922;-67
2022/02/16 09:45:10;;;;;;;;;;;;;;;;;;4930160;28;19922;-67
2022/02/16 09:47:37;;;;;;;;;;;;;;;;;;4933976;28;19945;-66
2022/02/16 09:50:03;;;;;;;;;;;;;;;;;;4926401;28;19992;-66
2022/02/16 09:52:29;;;;;;;;;;;;;;;;;;4933333;28;19927;-66
2022/02/16 09:54:55;;;;;;;;;;;;;;;;;;4927131;28;19965;-66
2022/02/16 09:57:21;;;;;;;;;;;;;;;;;;4926512;28;20029;-67
2022/02/16 09:59:47;;;;;;;;;;;;;;;;;;4928778;28;19922;-66
2022/02/16 10:02:13;;;;;;;;;;;;;;;;;;4935583;28;20294;-66
2022/02/16 10:04:41;;;;;;;;;;;;;;;;;;4927875;28;20327;-66
2022/02/16 10:07:07;;;;;;;;;;;;;;;;;;4941204;28;20520;-66
2022/02/16 10:09:35;;;;;;;;;;;;;;;;;;4930033;28;19950;-66
2022/02/16 10:12:01;;;;;;;;;;;;;;;;;;4929087;28;19929;-66
2022/02/16 10:14:27;;;;;;;;;;;;;;;;;;4935646;28;19926;-66
2022/02/16 10:16:53;;;;;;;;;;;;;;;;;;4925090;28;20290;-67
2022/02/16 10:19:19;;;;;;;;;;;;;;;;;;4931038;28;19918;-67
2022/02/16 10:21:45;;;;;;;;;;;;;;;;;;4927502;28;19948;-69
2022/02/16 10:24:11;;;;;;;;;;;;;;;;;;4931913;28;19936;-69
2022/02/16 10:26:37;;;;;;;;;;;;;;;;;;4930275;28;20018;-69
2022/02/16 10:29:03;;;;;;;;;;;;;;;;;;4927581;28;19925;-69
2022/02/16 10:31:29;;;;;;;;;;;;;;;;;;4934538;28;20401;-69
2022/02/16 10:33:56;;;;;;;;;;;;;;;;;;4930972;28;19923;-67
2022/02/16 10:36:27;;;;;;;;;;;;;;;;;;4930080;28;19919;-67
2022/02/16 10:38:53;;;;;;;;;;;;;;;;;;4935556;28;20025;-67
2022/02/16 10:41:19;;;;;;;;;;;;;;;;;;4927374;28;19919;-69
2022/02/16 10:43:45;;;;;;;;;;;;;;;;;;4944148;28;19941;-69
2022/02/16 10:46:11;;;;;;;;;;;;;;;;;;4968712;28;20381;-70
2022/02/16 10:48:37;;;;;;;;;;;;;;;;;;4960738;28;19969;-69
2022/02/16 10:51:06;;;;;;;;;;;;;;;;;;4947346;28;19918;-67
2022/02/16 10:53:32;;;;;;;;;;;;;;;;;;4949341;28;19980;-67
2022/02/16 10:55:59;;;;;;;;;;;;;;;;;;4962496;28;19918;-68
2022/02/16 10:58:25;;;;;;;;;;;;;;;;;;4953848;28;20004;-67
2022/02/16 11:00:51;;;;;;;;;;;;;;;;;;4962153;28;20065;-69
2022/02/16 11:03:17;;;;;;;;;;;;;;;;;;4964360;28;20677;-67
2022/02/16 11:05:46;;;;;;;;;;;;;;;;;;4961842;28;19925;-66
2022/02/16 11:08:14;;;;;;;;;;;;;;;;;;4963674;28;19914;-67
2022/02/16 11:10:40;;;;;;;;;;;;;;;;;;4958175;28;19921;-67
2022/02/16 11:13:07;;;;;;;;;;;;;;;;;;4964634;28;19925;-67
2022/02/16 11:15:33;;;;;;;;;;;;;;;;;;4963710;28;20089;-67
2022/02/16 11:17:59;;;;;;;;;;;;;;;;;;4964268;28;20052;-67
2022/02/16 11:20:25;;;;;;;;;;;;;;;;;;4966689;28;19980;-67
2022/02/16 11:22:51;;;;;;;;;;;;;;;;;;4959635;28;20454;-67
2022/02/16 11:25:17;;;;;;;;;;;;;;;;;;4970482;28;19918;-68
2022/02/16 11:27:43;;;;;;;;;;;;;;;;;;4954715;28;19925;-67
2022/02/16 11:30:09;;;;;;;;;;;;;;;;;;4952157;28;19933;-68
2022/02/16 11:32:35;;;;;;;;;;;;;;;;;;4965736;28;20575;-67
2022/02/16 11:35:01;;;;;;;;;;;;;;;;;;4958879;28;21152;-68
2022/02/16 11:37:28;;;;;;;;;;;;;;;;;;4948192;28;19958;-68
2022/02/16 11:39:54;;;;;;;;;;;;;;;;;;4961377;28;20729;-67
2022/02/16 11:42:20;;;;;;;;;;;;;;;;;;4961633;28;19922;-67
2022/02/16 11:44:46;;;;;;;;;;;;;;;;;;4957541;28;19918;-67
2022/02/16 11:47:12;;;;;;;;;;;;;;;;;;4960871;28;19971;-67
2022/02/16 11:49:38;;;;;;;;;;;;;;;;;;4963478;28;20083;-68
2022/02/16 11:52:04;;;;;;;;;;;;;;;;;;4961967;28;20356;-67
2022/02/16 11:54:30;;;;;;;;;;;;;;;;;;4950019;28;20008;-68
2022/02/16 11:56:56;;;;;;;;;;;;;;;;;;4965547;28;19941;-68
2022/02/16 11:59:21;;;;;;;;;;;;;;;;;;4973554;28;19924;-68
2022/02/16 12:01:47;;;;;;;;;;;;;;;;;;4948170;28;19925;-68
2022/02/16 12:04:13;;;;;;;;;;;;;;;;;;4956973;28;20057;-69
2022/02/16 12:06:39;;;;;;;;;;;;;;;;;;4950992;28;19918;-67
2022/02/16 12:09:06;;;;;;;;;;;;;;;;;;4964075;28;19921;-67
2022/02/16 12:11:32;;;;;;;;;;;;;;;;;;4944381;28;19992;-67
2022/02/16 12:14:02;;;;;;;;;;;;;;;;;;4961101;28;20342;-67
2022/02/16 12:16:28;;;;;;;;;;;;;;;;;;4966245;28;19961;-67
2022/02/16 12:18:54;;;;;;;;;;;;;;;;;;4965200;28;20016;-67
2022/02/16 12:21:20;;;;;;;;;;;;;;;;;;4948635;28;20373;-68
2022/02/16 12:23:46;;;;;;;;;;;;;;;;;;4949649;28;20493;-67
2022/02/16 12:26:12;;;;;;;;;;;;;;;;;;4966856;28;20308;-69
2022/02/16 12:28:38;;;;;;;;;;;;;;;;;;4967798;28;20024;-67
2022/02/16 12:31:04;;;;;;;;;;;;;;;;;;4965036;28;20391;-68
2022/02/16 12:33:30;;;;;;;;;;;;;;;;;;4966452;28;20190;-68
2022/02/16 12:35:57;;;;;;;;;;;;;;;;;;4952749;28;19917;-68
2022/02/16 12:38:23;;;;;;;;;;;;;;;;;;4970653;28;19913;-70
2022/02/16 12:40:49;;;;;;;;;;;;;;;;;;4965043;28;19922;-68
2022/02/16 12:43:15;;;;;;;;;;;;;;;;;;4972978;28;20407;-68
2022/02/16 12:45:41;;;;;;;;;;;;;;;;;;4962135;28;19922;-68
2022/02/16 12:48:07;;;;;;;;;;;;;;;;;;4968780;28;20383;-68
2022/02/16 12:50:33;;;;;;;;;;;;;;;;;;4965165;28;20047;-68
2022/02/16 12:53:00;;;;;;;;;;;;;;;;;;4948088;28;19921;-68
2022/02/16 12:55:26;;;;;;;;;;;;;;;;;;4971437;28;19918;-68
2022/02/16 12:57:53;;;;;;;;;;;;;;;;;;4970150;28;19933;-67
2022/02/16 13:03:03;;;;;;;;;;;;;;;;;;4970203;28;19925;-67
2022/02/16 13:05:30;;;;;;;;;;;;;;;;;;4967522;28;19918;-67
2022/02/16 13:07:56;;;;;;;;;;;;;;;;;;4964694;28;20020;-67
2022/02/16 13:10:22;;;;;;;;;;;;;;;;;;4961626;28;19932;-67
2022/02/16 13:12:50;;;;;;;;;;;;;;;;;;4948040;28;20456;-67
2022/02/16 13:15:16;;;;;;;;;;;;;;;;;;4969997;28;19918;-67
2022/02/16 13:17:48;;;;;;;;;;;;;;;;;;4968210;28;19918;-67
2022/02/16 13:20:14;;;;;;;;;;;;;;;;;;4952333;28;19917;-67
2022/02/16 13:22:40;;;;;;;;;;;;;;;;;;4970144;28;19921;-69
2022/02/16 13:25:06;;;;;;;;;;;;;;;;;;4966973;28;20427;-68
2022/02/16 13:27:32;;;;;;;;;;;;;;;;;;4950187;28;20015;-67
2022/02/16 13:29:58;;;;;;;;;;;;;;;;;;4970452;28;20390;-69
2022/02/16 13:32:24;;;;;;;;;;;;;;;;;;4955740;28;19961;-67
2022/02/16 13:34:50;;;;;;;;;;;;;;;;;;4964730;28;19922;-67
2022/02/16 13:37:16;;;;;;;;;;;;;;;;;;4968908;28;19918;-70
2022/02/16 13:39:42;;;;;;;;;;;;;;;;;;4946183;28;19922;-68
2022/02/16 13:42:08;;;;;;;;;;;;;;;;;;4968243;28;19922;-67
2022/02/16 13:44:34;;;;;;;;;;;;;;;;;;4966818;28;19917;-67
2022/02/16 13:47:03;;;;;;;;;;;;;;;;;;4959901;28;20790;-67
2022/02/16 13:49:29;;;;;;;;;;;;;;;;;;4949858;28;20223;-67
2022/02/16 13:51:55;;;;;;;;;;;;;;;;;;4964310;28;20108;-68
2022/02/16 13:54:21;;;;;;;;;;;;;;;;;;4953797;28;20247;-68
2022/02/16 13:56:47;;;;;;;;;;;;;;;;;;4968476;28;20112;-68
2022/02/16 13:59:13;;;;;;;;;;;;;;;;;;4966042;28;20475;-67
2022/02/16 14:01:39;;;;;;;;;;;;;;;;;;4954440;28;19918;-68
2022/02/16 14:04:05;;;;;;;;;;;;;;;;;;4952338;28;20308;-69
2022/02/16 14:06:31;;;;;;;;;;;;;;;;;;4964081;28;20419;-67
2022/02/16 14:08:57;;;;;;;;;;;;;;;;;;4960500;28;20044;-69
2022/02/16 14:11:23;;;;;;;;;;;;;;;;;;4962775;28;19918;-68
2022/02/16 14:13:49;;;;;;;;;;;;;;;;;;4960051;28;19926;-69
2022/02/16 14:16:15;;;;;;;;;;;;;;;;;;4952983;28;20008;-67
2022/02/16 14:18:42;;;;;;;;;;;;;;;;;;4961346;28;19918;-68
2022/02/16 14:21:08;;;;;;;;;;;;;;;;;;4959906;28;19948;-69
2022/02/16 14:23:34;;;;;;;;;;;;;;;;;;4964277;28;20631;-69
2022/02/16 14:26:00;;;;;;;;;;;;;;;;;;4944154;28;19971;-68
2022/02/16 14:28:26;;;;;;;;;;;;;;;;;;4960068;28;19968;-66
2022/02/16 14:30:52;;;;;;;;;;;;;;;;;;4960587;28;19992;-68
2022/02/16 14:33:18;;;;;;;;;;;;;;;;;;4963764;28;20051;-69
2022/02/16 14:35:43;;;;;;;;;;;;;;;;;;4959096;28;19953;-70
2022/02/16 14:38:09;;;;;;;;;;;;;;;;;;4961912;28;20370;-69
2022/02/16 14:40:35;;;;;;;;;;;;;;;;;;4965040;28;19932;-67
2022/02/16 14:43:03;;;;;;;;;;;;;;;;;;4943090;28;19930;-67
2022/02/16 14:45:29;;;;;;;;;;;;;;;;;;4964818;28;19993;-67
2022/02/16 14:47:55;;;;;;;;;;;;;;;;;;4940225;28;20356;-68
2022/02/16 14:50:21;;;;;;;;;;;;;;;;;;4963404;28;20100;-69
2022/02/16 14:52:47;;;;;;;;;;;;;;;;;;4957757;28;20008;-69
2022/02/16 14:55:13;;;;;;;;;;;;;;;;;;4962148;28;19956;-69
2022/02/16 14:57:39;;;;;;;;;;;;;;;;;;4962018;28;20279;-67
2022/02/16 15:00:05;;;;;;;;;;;;;;;;;;4958940;28;20052;-67
2022/02/16 15:02:31;;;;;;;;;;;;;;;;;;4961731;28;19932;-68
2022/02/16 15:04:57;;;;;;;;;;;;;;;;;;4959830;28;19960;-69
2022/02/16 15:07:23;;;;;;;;;;;;;;;;;;4960729;28;20332;-69
2022/02/16 15:09:49;;;;;;;;;;;;;;;;;;4957606;28;19926;-69
2022/02/16 15:12:15;;;;;;;;;;;;;;;;;;4949138;28;19921;-69
2022/02/16 15:14:42;;;;;;;;;;;;;;;;;;4958354;28;19926;-69
2022/02/16 15:17:08;;;;;;;;;;;;;;;;;;4953833;28;19992;-68
2022/02/16 15:19:36;;;;;;;;;;;;;;;;;;4964487;28;19924;-66
2022/02/16 15:22:02;;;;;;;;;;;;;;;;;;4960335;28;19929;-67
2022/02/16 15:24:28;;;;;;;;;;;;;;;;;;4963240;28;19918;-67
2022/02/16 15:26:53;;;;;;;;;;;;;;;;;;4961838;28;19924;-68
2022/02/16 15:29:19;;;;;;;;;;;;;;;;;;4966195;28;19917;-68
2022/02/16 15:31:46;;;;;;;;;;;;;;;;;;4942706;28;19918;-67
2022/02/16 15:34:12;;;;;;;;;;;;;;;;;;4965818;28;20407;-68
2022/02/16 15:36:39;;;;;;;;;;;;;;;;;;4960027;28;20542;-67
2022/02/16 15:39:06;;;;;;;;;;;;;;;;;;4953196;28;19922;-67
2022/02/16 15:41:32;;;;;;;;;;;;;;;;;;4964864;28;19921;-66
2022/02/16 15:43:59;;;;;;;;;;;;;;;;;;4955889;28;20766;-67
2022/02/16 15:46:26;;;;;;;;;;;;;;;;;;4950465;28;19935;-69
2022/02/16 15:48:52;;;;;;;;;;;;;;;;;;4957730;28;19921;-67
2022/02/16 15:51:22;;;;;;;;;;;;;;;;;;4946230;28;19918;-67
2022/02/16 15:53:48;;;;;;;;;;;;;;;;;;4946365;28;19980;-68
2022/02/16 15:56:14;;;;;;;;;;;;;;;;;;4963561;28;20037;-68
2022/02/16 15:58:41;;;;;;;;;;;;;;;;;;4965971;28;19917;-70
2022/02/16 16:01:09;;;;;;;;;;;;;;;;;;4963605;28;19921;-69
2022/02/16 16:03:36;;;;;;;;;;;;;;;;;;4964058;28;19925;-67
2022/02/16 16:06:02;;;;;;;;;;;;;;;;;;4963914;28;19922;-69
2022/02/16 16:08:35;;;;;;;;;;;;;;;;;;4964060;28;19929;-68
2022/02/16 16:11:02;;;;;;;;;;;;;;;;;;4962332;28;19957;-67
2022/02/16 16:13:29;;;;;;;;;;;;;;;;;;4965684;28;19922;-67
2022/02/16 16:15:59;;;;;;;;;;;;;;;;;;4961765;28;19917;-67
2022/02/16 16:18:27;;;;;;;;;;;;;;;;;;4959775;28;20017;-67
2022/02/16 16:20:53;;;;;;;;;;;;;;;;;;4960649;28;19925;-68
2022/02/16 16:23:19;;;;;;;;;;;;;;;;;;4962477;28;19918;-69
2022/02/16 16:25:47;;;;;;;;;;;;;;;;;;4964221;28;19918;-68
2022/02/16 16:28:15;;;;;;;;;;;;;;;;;;4972398;28;19922;-69
2022/02/16 16:30:42;;;;;;;;;;;;;;;;;;4959534;28;20177;-69
2022/02/16 16:33:09;;;;;;;;;;;;;;;;;;4964375;28;20004;-69
2022/02/16 16:35:35;;;;;;;;;;;;;;;;;;4962786;28;19922;-68
2022/02/16 16:38:01;;;;;;;;;;;;;;;;;;4960936;28;22123;-69
2022/02/16 16:40:27;;;;;;;;;;;;;;;;;;4969446;28;19922;-69
2022/02/16 16:42:54;;;;;;;;;;;;;;;;;;4960379;28;19941;-69